sensor_id;sensor_type;location;lat;lon;timestamp;P1;durP1;ratioP1;P2;durP2;ratioP2
78120;SDS011;67585;44.802;10.332;2023-09-18T00:04:11;24.75;;;12.02;;
78120;SDS011;67585;44.802;10.332;2023-09-18T00:06:37;25.92;;;11.38;;
78120;SDS011;67585;44.802;10.332;2023-09-18T00:09:02;25.30;;;11.27;;
78120;SDS011;67585;44.802;10.332;2023-09-18T00:11:27;27.35;;;11.20;;
78120;SDS011;67585;44.802;10.332;2023-09-18T00:13:53;24.15;;;11.73;;
78120;SDS011;67585;44.802;10.332;2023-09-18T00:16:18;22.52;;;10.13;;
78120;SDS011;67585;44.802;10.332;2023-09-18T00:18:44;20.45;;;11.48;;
78120;SDS011;67585;44.802;10.332;2023-09-18T00:21:09;23.98;;;10.50;;
78120;SDS011;67585;44.802;10.332;2023-09-18T00:23:36;20.25;;;10.30;;
78120;SDS011;67585;44.802;10.332;2023-09-18T00:26:02;21.25;;;9.80;;
78120;SDS011;67585;44.802;10.332;2023-09-18T00:28:28;24.00;;;10.55;;
78120;SDS011;67585;44.802;10.332;2023-09-18T00:30:54;21.00;;;10.07;;
78120;SDS011;67585;44.802;10.332;2023-09-18T00:33:19;21.73;;;10.75;;
78120;SDS011;67585;44.802;10.332;2023-09-18T00:35:46;25.80;;;9.88;;
78120;SDS011;67585;44.802;10.332;2023-09-18T00:38:12;20.90;;;9.38;;
78120;SDS011;67585;44.802;10.332;2023-09-18T00:40:38;22.88;;;9.55;;
78120;SDS011;67585;44.802;10.332;2023-09-18T00:43:03;31.20;;;9.57;;
78120;SDS011;67585;44.802;10.332;2023-09-18T00:45:29;23.45;;;9.77;;
78120;SDS011;67585;44.802;10.332;2023-09-18T00:47:54;17.48;;;8.68;;
78120;SDS011;67585;44.802;10.332;2023-09-18T00:50:20;19.05;;;8.68;;
78120;SDS011;67585;44.802;10.332;2023-09-18T00:52:46;20.48;;;9.75;;
78120;SDS011;67585;44.802;10.332;2023-09-18T00:55:14;17.58;;;8.23;;
78120;SDS011;67585;44.802;10.332;2023-09-18T00:57:40;16.95;;;8.27;;
78120;SDS011;67585;44.802;10.332;2023-09-18T01:00:07;16.65;;;6.78;;
78120;SDS011;67585;44.802;10.332;2023-09-18T01:02:34;15.43;;;6.75;;
78120;SDS011;67585;44.802;10.332;2023-09-18T01:04:59;16.50;;;6.68;;
78120;SDS011;67585;44.802;10.332;2023-09-18T01:07:25;16.88;;;7.10;;
78120;SDS011;67585;44.802;10.332;2023-09-18T01:09:51;17.45;;;7.22;;
78120;SDS011;67585;44.802;10.332;2023-09-18T01:12:18;18.55;;;7.18;;
78120;SDS011;67585;44.802;10.332;2023-09-18T01:15:07;24.13;;;8.73;;
78120;SDS011;67585;44.802;10.332;2023-09-18T01:17:51;20.35;;;9.13;;
78120;SDS011;67585;44.802;10.332;2023-09-18T01:20:17;19.25;;;9.18;;
78120;SDS011;67585;44.802;10.332;2023-09-18T01:22:42;20.67;;;10.00;;
78120;SDS011;67585;44.802;10.332;2023-09-18T01:25:08;25.52;;;9.18;;
78120;SDS011;67585;44.802;10.332;2023-09-18T01:27:34;16.80;;;8.05;;
78120;SDS011;67585;44.802;10.332;2023-09-18T01:29:59;16.98;;;7.53;;
78120;SDS011;67585;44.802;10.332;2023-09-18T01:32:25;16.70;;;8.68;;
78120;SDS011;67585;44.802;10.332;2023-09-18T01:34:54;19.48;;;7.68;;
78120;SDS011;67585;44.802;10.332;2023-09-18T01:37:23;20.38;;;7.38;;
78120;SDS011;67585;44.802;10.332;2023-09-18T01:39:51;17.35;;;7.05;;
78120;SDS011;67585;44.802;10.332;2023-09-18T01:42:17;18.77;;;8.82;;
78120;SDS011;67585;44.802;10.332;2023-09-18T01:44:43;15.82;;;7.85;;
78120;SDS011;67585;44.802;10.332;2023-09-18T01:47:12;17.25;;;6.97;;
78120;SDS011;67585;44.802;10.332;2023-09-18T01:49:41;16.25;;;7.18;;
78120;SDS011;67585;44.802;10.332;2023-09-18T01:52:07;19.30;;;8.77;;
78120;SDS011;67585;44.802;10.332;2023-09-18T01:54:33;18.67;;;7.65;;
78120;SDS011;67585;44.802;10.332;2023-09-18T01:56:59;18.63;;;7.82;;
78120;SDS011;67585;44.802;10.332;2023-09-18T01:59:25;17.23;;;8.43;;
78120;SDS011;67585;44.802;10.332;2023-09-18T02:01:51;19.48;;;7.45;;
78120;SDS011;67585;44.802;10.332;2023-09-18T02:04:18;14.20;;;7.38;;
78120;SDS011;67585;44.802;10.332;2023-09-18T02:06:45;18.63;;;8.45;;
78120;SDS011;67585;44.802;10.332;2023-09-18T02:09:11;14.95;;;7.65;;
78120;SDS011;67585;44.802;10.332;2023-09-18T02:11:41;15.55;;;8.48;;
78120;SDS011;67585;44.802;10.332;2023-09-18T02:14:08;18.60;;;7.05;;
78120;SDS011;67585;44.802;10.332;2023-09-18T02:16:36;19.33;;;7.95;;
78120;SDS011;67585;44.802;10.332;2023-09-18T02:19:03;21.20;;;8.20;;
78120;SDS011;67585;44.802;10.332;2023-09-18T02:21:29;17.63;;;8.57;;
78120;SDS011;67585;44.802;10.332;2023-09-18T02:26:21;17.83;;;8.18;;
78120;SDS011;67585;44.802;10.332;2023-09-18T02:28:47;18.45;;;8.85;;
78120;SDS011;67585;44.802;10.332;2023-09-18T02:31:13;14.23;;;6.82;;
78120;SDS011;67585;44.802;10.332;2023-09-18T02:33:39;16.77;;;7.35;;
78120;SDS011;67585;44.802;10.332;2023-09-18T02:36:05;21.13;;;7.97;;
78120;SDS011;67585;44.802;10.332;2023-09-18T02:38:31;18.50;;;7.25;;
78120;SDS011;67585;44.802;10.332;2023-09-18T02:40:57;14.90;;;6.93;;
78120;SDS011;67585;44.802;10.332;2023-09-18T02:43:23;21.10;;;7.82;;
78120;SDS011;67585;44.802;10.332;2023-09-18T02:45:48;18.15;;;8.65;;
78120;SDS011;67585;44.802;10.332;2023-09-18T02:48:14;21.63;;;7.90;;
78120;SDS011;67585;44.802;10.332;2023-09-18T02:50:40;17.52;;;7.78;;
78120;SDS011;67585;44.802;10.332;2023-09-18T02:53:05;15.30;;;7.28;;
78120;SDS011;67585;44.802;10.332;2023-09-18T02:55:32;17.77;;;7.68;;
78120;SDS011;67585;44.802;10.332;2023-09-18T02:57:57;19.83;;;8.00;;
78120;SDS011;67585;44.802;10.332;2023-09-18T03:00:24;15.68;;;6.75;;
78120;SDS011;67585;44.802;10.332;2023-09-18T03:02:49;20.95;;;7.28;;
78120;SDS011;67585;44.802;10.332;2023-09-18T03:05:14;17.70;;;7.63;;
78120;SDS011;67585;44.802;10.332;2023-09-18T03:07:40;16.00;;;7.10;;
78120;SDS011;67585;44.802;10.332;2023-09-18T03:10:05;14.98;;;6.47;;
78120;SDS011;67585;44.802;10.332;2023-09-18T03:12:32;14.00;;;6.78;;
78120;SDS011;67585;44.802;10.332;2023-09-18T03:14:58;17.38;;;7.78;;
78120;SDS011;67585;44.802;10.332;2023-09-18T03:17:24;14.90;;;7.68;;
78120;SDS011;67585;44.802;10.332;2023-09-18T03:19:49;19.05;;;8.02;;
78120;SDS011;67585;44.802;10.332;2023-09-18T03:22:15;15.27;;;8.15;;
78120;SDS011;67585;44.802;10.332;2023-09-18T03:24:41;19.80;;;7.75;;
78120;SDS011;67585;44.802;10.332;2023-09-18T03:27:06;17.17;;;8.23;;
78120;SDS011;67585;44.802;10.332;2023-09-18T03:29:31;17.73;;;6.43;;
78120;SDS011;67585;44.802;10.332;2023-09-18T03:31:57;17.77;;;8.23;;
78120;SDS011;67585;44.802;10.332;2023-09-18T03:34:24;15.35;;;6.45;;
78120;SDS011;67585;44.802;10.332;2023-09-18T03:36:52;17.02;;;6.55;;
78120;SDS011;67585;44.802;10.332;2023-09-18T03:39:18;13.15;;;6.18;;
78120;SDS011;67585;44.802;10.332;2023-09-18T03:41:43;14.07;;;7.18;;
78120;SDS011;67585;44.802;10.332;2023-09-18T03:44:09;15.13;;;6.45;;
78120;SDS011;67585;44.802;10.332;2023-09-18T03:46:35;17.25;;;5.82;;
78120;SDS011;67585;44.802;10.332;2023-09-18T03:49:01;17.67;;;5.85;;
78120;SDS011;67585;44.802;10.332;2023-09-18T03:51:28;16.23;;;7.60;;
78120;SDS011;67585;44.802;10.332;2023-09-18T03:53:54;15.77;;;6.55;;
78120;SDS011;67585;44.802;10.332;2023-09-18T03:56:20;17.83;;;7.00;;
78120;SDS011;67585;44.802;10.332;2023-09-18T03:58:46;15.07;;;6.03;;
78120;SDS011;67585;44.802;10.332;2023-09-18T04:01:14;15.52;;;5.75;;
78120;SDS011;67585;44.802;10.332;2023-09-18T04:03:40;11.93;;;5.38;;
78120;SDS011;67585;44.802;10.332;2023-09-18T04:06:05;13.55;;;4.78;;
78120;SDS011;67585;44.802;10.332;2023-09-18T04:08:31;14.40;;;5.25;;
78120;SDS011;67585;44.802;10.332;2023-09-18T04:10:57;12.50;;;5.43;;
78120;SDS011;67585;44.802;10.332;2023-09-18T04:13:23;15.02;;;6.55;;
78120;SDS011;67585;44.802;10.332;2023-09-18T04:15:48;13.05;;;5.32;;
78120;SDS011;67585;44.802;10.332;2023-09-18T04:18:13;14.60;;;5.13;;
78120;SDS011;67585;44.802;10.332;2023-09-18T04:20:39;15.32;;;5.10;;
78120;SDS011;67585;44.802;10.332;2023-09-18T04:23:21;15.93;;;6.47;;
78120;SDS011;67585;44.802;10.332;2023-09-18T04:25:50;13.52;;;5.38;;
78120;SDS011;67585;44.802;10.332;2023-09-18T04:28:17;17.58;;;6.03;;
78120;SDS011;67585;44.802;10.332;2023-09-18T04:30:44;15.43;;;4.88;;
78120;SDS011;67585;44.802;10.332;2023-09-18T04:33:10;11.55;;;4.72;;
78120;SDS011;67585;44.802;10.332;2023-09-18T04:35:37;15.23;;;7.07;;
78120;SDS011;67585;44.802;10.332;2023-09-18T04:40:29;18.20;;;6.40;;
78120;SDS011;67585;44.802;10.332;2023-09-18T04:42:57;12.88;;;5.60;;
78120;SDS011;67585;44.802;10.332;2023-09-18T04:45:26;12.52;;;5.22;;
78120;SDS011;67585;44.802;10.332;2023-09-18T04:47:52;14.95;;;5.25;;
78120;SDS011;67585;44.802;10.332;2023-09-18T04:50:18;18.25;;;7.07;;
78120;SDS011;67585;44.802;10.332;2023-09-18T04:52:43;12.55;;;5.18;;
78120;SDS011;67585;44.802;10.332;2023-09-18T04:55:09;15.38;;;5.10;;
78120;SDS011;67585;44.802;10.332;2023-09-18T04:57:35;12.95;;;4.60;;
78120;SDS011;67585;44.802;10.332;2023-09-18T05:00:01;13.05;;;5.07;;
78120;SDS011;67585;44.802;10.332;2023-09-18T05:02:27;13.15;;;5.38;;
78120;SDS011;67585;44.802;10.332;2023-09-18T05:04:55;13.63;;;5.57;;
78120;SDS011;67585;44.802;10.332;2023-09-18T05:07:21;12.27;;;5.90;;
78120;SDS011;67585;44.802;10.332;2023-09-18T05:09:46;11.20;;;5.03;;
78120;SDS011;67585;44.802;10.332;2023-09-18T05:12:12;13.15;;;6.35;;
78120;SDS011;67585;44.802;10.332;2023-09-18T05:14:40;15.30;;;5.13;;
78120;SDS011;67585;44.802;10.332;2023-09-18T05:17:08;15.45;;;5.68;;
78120;SDS011;67585;44.802;10.332;2023-09-18T05:19:36;14.57;;;5.40;;
78120;SDS011;67585;44.802;10.332;2023-09-18T05:22:01;11.38;;;6.18;;
78120;SDS011;67585;44.802;10.332;2023-09-18T05:24:27;11.27;;;4.95;;
78120;SDS011;67585;44.802;10.332;2023-09-18T05:26:54;11.95;;;4.70;;
78120;SDS011;67585;44.802;10.332;2023-09-18T05:29:19;11.13;;;4.85;;
78120;SDS011;67585;44.802;10.332;2023-09-18T05:31:45;16.90;;;5.00;;
78120;SDS011;67585;44.802;10.332;2023-09-18T05:34:11;11.85;;;4.75;;
78120;SDS011;67585;44.802;10.332;2023-09-18T05:36:37;11.90;;;4.20;;
78120;SDS011;67585;44.802;10.332;2023-09-18T05:39:03;14.77;;;4.97;;
78120;SDS011;67585;44.802;10.332;2023-09-18T05:41:29;16.08;;;5.85;;
78120;SDS011;67585;44.802;10.332;2023-09-18T05:43:55;12.38;;;5.78;;
78120;SDS011;67585;44.802;10.332;2023-09-18T05:46:21;14.55;;;4.43;;
78120;SDS011;67585;44.802;10.332;2023-09-18T05:48:47;11.35;;;5.20;;
78120;SDS011;67585;44.802;10.332;2023-09-18T05:51:12;14.07;;;5.68;;
78120;SDS011;67585;44.802;10.332;2023-09-18T05:53:38;15.45;;;6.65;;
78120;SDS011;67585;44.802;10.332;2023-09-18T05:56:03;11.48;;;5.85;;
78120;SDS011;67585;44.802;10.332;2023-09-18T05:58:30;13.80;;;5.55;;
78120;SDS011;67585;44.802;10.332;2023-09-18T06:00:57;13.05;;;5.57;;
78120;SDS011;67585;44.802;10.332;2023-09-18T06:03:25;14.55;;;4.97;;
78120;SDS011;67585;44.802;10.332;2023-09-18T06:05:51;14.68;;;5.80;;
78120;SDS011;67585;44.802;10.332;2023-09-18T06:08:16;17.98;;;6.97;;
78120;SDS011;67585;44.802;10.332;2023-09-18T06:10:41;15.75;;;5.03;;
78120;SDS011;67585;44.802;10.332;2023-09-18T06:13:07;13.43;;;5.43;;
78120;SDS011;67585;44.802;10.332;2023-09-18T06:15:32;17.92;;;5.97;;
78120;SDS011;67585;44.802;10.332;2023-09-18T06:17:58;16.98;;;6.30;;
78120;SDS011;67585;44.802;10.332;2023-09-18T06:20:23;18.60;;;6.30;;
78120;SDS011;67585;44.802;10.332;2023-09-18T06:22:49;14.73;;;4.65;;
78120;SDS011;67585;44.802;10.332;2023-09-18T06:25:14;14.32;;;4.70;;
78120;SDS011;67585;44.802;10.332;2023-09-18T06:27:39;13.60;;;6.95;;
78120;SDS011;67585;44.802;10.332;2023-09-18T06:30:05;18.00;;;5.70;;
78120;SDS011;67585;44.802;10.332;2023-09-18T06:32:31;17.02;;;7.45;;
78120;SDS011;67585;44.802;10.332;2023-09-18T06:34:57;20.13;;;7.75;;
78120;SDS011;67585;44.802;10.332;2023-09-18T06:37:23;20.33;;;6.47;;
78120;SDS011;67585;44.802;10.332;2023-09-18T06:39:51;14.52;;;6.47;;
78120;SDS011;67585;44.802;10.332;2023-09-18T06:42:17;17.33;;;8.10;;
78120;SDS011;67585;44.802;10.332;2023-09-18T06:44:42;18.70;;;7.97;;
78120;SDS011;67585;44.802;10.332;2023-09-18T06:47:08;13.95;;;7.32;;
78120;SDS011;67585;44.802;10.332;2023-09-18T06:49:33;13.45;;;5.72;;
78120;SDS011;67585;44.802;10.332;2023-09-18T06:51:59;19.98;;;6.65;;
78120;SDS011;67585;44.802;10.332;2023-09-18T06:54:24;13.38;;;6.00;;
78120;SDS011;67585;44.802;10.332;2023-09-18T06:56:50;16.73;;;7.45;;
78120;SDS011;67585;44.802;10.332;2023-09-18T06:59:15;18.58;;;8.05;;
78120;SDS011;67585;44.802;10.332;2023-09-18T07:01:41;23.65;;;8.32;;
78120;SDS011;67585;44.802;10.332;2023-09-18T07:04:07;16.70;;;7.38;;
78120;SDS011;67585;44.802;10.332;2023-09-18T07:06:33;18.17;;;7.47;;
78120;SDS011;67585;44.802;10.332;2023-09-18T07:08:58;23.52;;;10.80;;
78120;SDS011;67585;44.802;10.332;2023-09-18T07:11:24;25.90;;;13.90;;
78120;SDS011;67585;44.802;10.332;2023-09-18T07:13:50;26.92;;;11.05;;
78120;SDS011;67585;44.802;10.332;2023-09-18T07:16:15;27.88;;;12.20;;
78120;SDS011;67585;44.802;10.332;2023-09-18T07:18:41;33.95;;;13.95;;
78120;SDS011;67585;44.802;10.332;2023-09-18T07:21:06;29.15;;;14.13;;
78120;SDS011;67585;44.802;10.332;2023-09-18T07:23:32;29.50;;;13.25;;
78120;SDS011;67585;44.802;10.332;2023-09-18T07:26:02;30.75;;;14.13;;
78120;SDS011;67585;44.802;10.332;2023-09-18T07:28:27;31.13;;;15.23;;
78120;SDS011;67585;44.802;10.332;2023-09-18T07:30:53;34.10;;;16.35;;
78120;SDS011;67585;44.802;10.332;2023-09-18T07:33:18;34.80;;;16.05;;
78120;SDS011;67585;44.802;10.332;2023-09-18T07:35:47;25.38;;;11.77;;
78120;SDS011;67585;44.802;10.332;2023-09-18T07:38:16;30.40;;;11.13;;
78120;SDS011;67585;44.802;10.332;2023-09-18T07:40:44;26.20;;;10.23;;
78120;SDS011;67585;44.802;10.332;2023-09-18T07:43:10;25.30;;;12.05;;
78120;SDS011;67585;44.802;10.332;2023-09-18T07:45:38;32.80;;;14.35;;
78120;SDS011;67585;44.802;10.332;2023-09-18T07:48:04;30.17;;;14.10;;
78120;SDS011;67585;44.802;10.332;2023-09-18T07:50:31;31.45;;;12.27;;
78120;SDS011;67585;44.802;10.332;2023-09-18T07:52:58;35.58;;;15.40;;
78120;SDS011;67585;44.802;10.332;2023-09-18T07:55:24;36.47;;;13.52;;
78120;SDS011;67585;44.802;10.332;2023-09-18T07:57:49;32.83;;;14.20;;
78120;SDS011;67585;44.802;10.332;2023-09-18T08:00:16;28.00;;;13.75;;
78120;SDS011;67585;44.802;10.332;2023-09-18T08:02:42;31.92;;;14.27;;
78120;SDS011;67585;44.802;10.332;2023-09-18T08:05:08;30.92;;;12.98;;
78120;SDS011;67585;44.802;10.332;2023-09-18T08:07:34;34.60;;;14.68;;
78120;SDS011;67585;44.802;10.332;2023-09-18T08:10:01;33.65;;;15.93;;
78120;SDS011;67585;44.802;10.332;2023-09-18T08:12:30;33.78;;;14.57;;
78120;SDS011;67585;44.802;10.332;2023-09-18T08:14:55;31.67;;;15.27;;
78120;SDS011;67585;44.802;10.332;2023-09-18T08:17:24;31.10;;;14.95;;
78120;SDS011;67585;44.802;10.332;2023-09-18T08:19:50;44.33;;;18.83;;
78120;SDS011;67585;44.802;10.332;2023-09-18T08:22:17;39.95;;;17.50;;
78120;SDS011;67585;44.802;10.332;2023-09-18T08:27:10;38.47;;;15.18;;
78120;SDS011;67585;44.802;10.332;2023-09-18T08:29:37;37.80;;;18.42;;
78120;SDS011;67585;44.802;10.332;2023-09-18T08:32:02;39.55;;;17.65;;
78120;SDS011;67585;44.802;10.332;2023-09-18T08:34:28;34.88;;;16.13;;
78120;SDS011;67585;44.802;10.332;2023-09-18T08:36:53;39.28;;;18.27;;
78120;SDS011;67585;44.802;10.332;2023-09-18T08:39:19;35.55;;;16.27;;
78120;SDS011;67585;44.802;10.332;2023-09-18T08:41:45;40.33;;;17.95;;
78120;SDS011;67585;44.802;10.332;2023-09-18T08:44:15;40.78;;;18.25;;
78120;SDS011;67585;44.802;10.332;2023-09-18T08:46:43;41.42;;;20.00;;
78120;SDS011;67585;44.802;10.332;2023-09-18T08:49:09;41.95;;;17.23;;
78120;SDS011;67585;44.802;10.332;2023-09-18T08:51:36;39.40;;;18.63;;
78120;SDS011;67585;44.802;10.332;2023-09-18T08:54:02;41.80;;;18.70;;
78120;SDS011;67585;44.802;10.332;2023-09-18T08:56:29;43.20;;;18.85;;
78120;SDS011;67585;44.802;10.332;2023-09-18T08:58:56;40.40;;;18.38;;
78120;SDS011;67585;44.802;10.332;2023-09-18T09:01:22;40.17;;;19.00;;
78120;SDS011;67585;44.802;10.332;2023-09-18T09:03:47;48.03;;;20.75;;
78120;SDS011;67585;44.802;10.332;2023-09-18T09:06:13;40.80;;;19.77;;
78120;SDS011;67585;44.802;10.332;2023-09-18T09:08:39;42.92;;;18.20;;
78120;SDS011;67585;44.802;10.332;2023-09-18T09:11:05;38.22;;;15.88;;
78120;SDS011;67585;44.802;10.332;2023-09-18T09:13:31;39.90;;;18.05;;
78120;SDS011;67585;44.802;10.332;2023-09-18T09:15:57;34.45;;;15.25;;
78120;SDS011;67585;44.802;10.332;2023-09-18T09:18:24;41.03;;;18.05;;
78120;SDS011;67585;44.802;10.332;2023-09-18T09:20:58;40.88;;;18.70;;
78120;SDS011;67585;44.802;10.332;2023-09-18T09:23:28;41.58;;;18.83;;
78120;SDS011;67585;44.802;10.332;2023-09-18T09:26:14;33.75;;;15.93;;
78120;SDS011;67585;44.802;10.332;2023-09-18T09:28:42;40.03;;;16.63;;
78120;SDS011;67585;44.802;10.332;2023-09-18T09:31:08;38.17;;;16.70;;
78120;SDS011;67585;44.802;10.332;2023-09-18T09:33:36;38.30;;;16.98;;
78120;SDS011;67585;44.802;10.332;2023-09-18T09:36:06;40.75;;;17.30;;
78120;SDS011;67585;44.802;10.332;2023-09-18T09:38:33;35.35;;;16.17;;
78120;SDS011;67585;44.802;10.332;2023-09-18T09:40:59;38.20;;;16.83;;
78120;SDS011;67585;44.802;10.332;2023-09-18T09:43:27;41.85;;;18.95;;
78120;SDS011;67585;44.802;10.332;2023-09-18T09:46:02;37.33;;;19.70;;
78120;SDS011;67585;44.802;10.332;2023-09-18T09:48:28;45.22;;;19.75;;
78120;SDS011;67585;44.802;10.332;2023-09-18T09:50:58;43.97;;;19.48;;
78120;SDS011;67585;44.802;10.332;2023-09-18T09:53:44;41.10;;;19.80;;
78120;SDS011;67585;44.802;10.332;2023-09-18T09:56:12;39.47;;;18.02;;
78120;SDS011;67585;44.802;10.332;2023-09-18T09:58:38;43.15;;;18.63;;
78120;SDS011;67585;44.802;10.332;2023-09-18T10:01:08;45.30;;;20.80;;
78120;SDS011;67585;44.802;10.332;2023-09-18T10:03:36;47.03;;;21.60;;
78120;SDS011;67585;44.802;10.332;2023-09-18T10:06:04;45.60;;;19.88;;
78120;SDS011;67585;44.802;10.332;2023-09-18T10:08:30;46.58;;;21.80;;
78120;SDS011;67585;44.802;10.332;2023-09-18T10:11:15;47.55;;;20.00;;
78120;SDS011;67585;44.802;10.332;2023-09-18T10:13:44;43.70;;;19.67;;
78120;SDS011;67585;44.802;10.332;2023-09-18T10:16:13;55.10;;;20.63;;
78120;SDS011;67585;44.802;10.332;2023-09-18T10:19:11;52.53;;;21.40;;
78120;SDS011;67585;44.802;10.332;2023-09-18T10:24:34;48.13;;;21.67;;
78120;SDS011;67585;44.802;10.332;2023-09-18T10:27:06;57.63;;;24.70;;
78120;SDS011;67585;44.802;10.332;2023-09-18T10:29:34;49.03;;;20.38;;
78120;SDS011;67585;44.802;10.332;2023-09-18T10:32:04;51.13;;;22.58;;
78120;SDS011;67585;44.802;10.332;2023-09-18T10:34:30;48.13;;;20.23;;
78120;SDS011;67585;44.802;10.332;2023-09-18T10:36:58;46.22;;;20.98;;
78120;SDS011;67585;44.802;10.332;2023-09-18T10:39:25;46.88;;;20.73;;
78120;SDS011;67585;44.802;10.332;2023-09-18T10:41:54;49.53;;;20.30;;
78120;SDS011;67585;44.802;10.332;2023-09-18T10:44:20;42.42;;;21.23;;
78120;SDS011;67585;44.802;10.332;2023-09-18T10:46:46;48.60;;;24.02;;
78120;SDS011;67585;44.802;10.332;2023-09-18T10:49:12;51.80;;;22.75;;
78120;SDS011;67585;44.802;10.332;2023-09-18T10:51:40;53.17;;;21.85;;
78120;SDS011;67585;44.802;10.332;2023-09-18T10:54:07;49.70;;;23.60;;
78120;SDS011;67585;44.802;10.332;2023-09-18T10:56:40;53.10;;;23.17;;
78120;SDS011;67585;44.802;10.332;2023-09-18T10:59:07;54.28;;;23.83;;
78120;SDS011;67585;44.802;10.332;2023-09-18T11:01:34;60.13;;;24.92;;
78120;SDS011;67585;44.802;10.332;2023-09-18T11:04:01;58.97;;;25.98;;
78120;SDS011;67585;44.802;10.332;2023-09-18T11:06:29;59.30;;;22.30;;
78120;SDS011;67585;44.802;10.332;2023-09-18T11:09:02;57.60;;;26.00;;
78120;SDS011;67585;44.802;10.332;2023-09-18T11:11:31;51.67;;;23.00;;
78120;SDS011;67585;44.802;10.332;2023-09-18T11:14:00;57.17;;;23.15;;
78120;SDS011;67585;44.802;10.332;2023-09-18T11:18:52;48.70;;;20.17;;
78120;SDS011;67585;44.802;10.332;2023-09-18T11:21:27;50.15;;;21.27;;
78120;SDS011;67585;44.802;10.332;2023-09-18T11:26:31;50.40;;;20.63;;
78120;SDS011;67585;44.802;10.332;2023-09-18T11:29:04;44.40;;;19.65;;
78120;SDS011;67585;44.802;10.332;2023-09-18T11:34:14;45.53;;;20.90;;
78120;SDS011;67585;44.802;10.332;2023-09-18T11:36:41;47.50;;;20.05;;
78120;SDS011;67585;44.802;10.332;2023-09-18T11:39:06;37.15;;;19.67;;
78120;SDS011;67585;44.802;10.332;2023-09-18T11:41:34;38.90;;;17.63;;
78120;SDS011;67585;44.802;10.332;2023-09-18T11:46:47;43.05;;;17.13;;
78120;SDS011;67585;44.802;10.332;2023-09-18T11:49:20;46.65;;;19.77;;
78120;SDS011;67585;44.802;10.332;2023-09-18T11:51:51;37.92;;;18.35;;
78120;SDS011;67585;44.802;10.332;2023-09-18T11:54:17;47.42;;;17.00;;
78120;SDS011;67585;44.802;10.332;2023-09-18T11:56:43;39.00;;;16.88;;
78120;SDS011;67585;44.802;10.332;2023-09-18T11:59:09;37.30;;;15.82;;
78120;SDS011;67585;44.802;10.332;2023-09-18T12:01:36;38.28;;;15.85;;
78120;SDS011;67585;44.802;10.332;2023-09-18T12:04:04;32.70;;;14.70;;
78120;SDS011;67585;44.802;10.332;2023-09-18T12:06:34;34.53;;;11.18;;
78120;SDS011;67585;44.802;10.332;2023-09-18T12:08:59;26.75;;;7.70;;
78120;SDS011;67585;44.802;10.332;2023-09-18T12:11:25;16.50;;;4.55;;
78120;SDS011;67585;44.802;10.332;2023-09-18T12:13:51;20.63;;;6.30;;
78120;SDS011;67585;44.802;10.332;2023-09-18T12:16:17;20.77;;;4.55;;
78120;SDS011;67585;44.802;10.332;2023-09-18T12:18:47;22.52;;;4.65;;
78120;SDS011;67585;44.802;10.332;2023-09-18T12:21:13;21.05;;;3.55;;
78120;SDS011;67585;44.802;10.332;2023-09-18T12:23:41;18.83;;;2.72;;
78120;SDS011;67585;44.802;10.332;2023-09-18T12:26:13;24.50;;;4.20;;
78120;SDS011;67585;44.802;10.332;2023-09-18T12:28:40;22.30;;;2.22;;
78120;SDS011;67585;44.802;10.332;2023-09-18T12:31:09;24.30;;;2.97;;
78120;SDS011;67585;44.802;10.332;2023-09-18T12:33:36;25.38;;;2.70;;
78120;SDS011;67585;44.802;10.332;2023-09-18T12:36:03;23.85;;;2.75;;
78120;SDS011;67585;44.802;10.332;2023-09-18T12:38:30;26.73;;;2.65;;
78120;SDS011;67585;44.802;10.332;2023-09-18T12:40:55;18.88;;;1.35;;
78120;SDS011;67585;44.802;10.332;2023-09-18T12:43:24;21.25;;;1.65;;
78120;SDS011;67585;44.802;10.332;2023-09-18T12:45:50;22.50;;;2.17;;
78120;SDS011;67585;44.802;10.332;2023-09-18T12:48:16;20.02;;;2.53;;
78120;SDS011;67585;44.802;10.332;2023-09-18T12:50:41;18.75;;;2.40;;
78120;SDS011;67585;44.802;10.332;2023-09-18T12:53:10;15.75;;;2.03;;
78120;SDS011;67585;44.802;10.332;2023-09-18T12:55:37;19.85;;;3.47;;
78120;SDS011;67585;44.802;10.332;2023-09-18T12:58:03;26.73;;;2.40;;
78120;SDS011;67585;44.802;10.332;2023-09-18T13:00:35;16.98;;;1.77;;
78120;SDS011;67585;44.802;10.332;2023-09-18T13:03:02;16.75;;;1.35;;
78120;SDS011;67585;44.802;10.332;2023-09-18T13:05:29;21.13;;;2.00;;
78120;SDS011;67585;44.802;10.332;2023-09-18T13:08:00;17.80;;;4.20;;
78120;SDS011;67585;44.802;10.332;2023-09-18T13:10:28;17.00;;;3.50;;
78120;SDS011;67585;44.802;10.332;2023-09-18T13:12:54;20.25;;;2.33;;
78120;SDS011;67585;44.802;10.332;2023-09-18T13:15:27;18.10;;;1.88;;
78120;SDS011;67585;44.802;10.332;2023-09-18T13:17:53;18.45;;;2.15;;
78120;SDS011;67585;44.802;10.332;2023-09-18T13:20:23;19.90;;;2.53;;
78120;SDS011;67585;44.802;10.332;2023-09-18T13:22:51;27.10;;;3.05;;
78120;SDS011;67585;44.802;10.332;2023-09-18T13:25:25;11.80;;;0.95;;
78120;SDS011;67585;44.802;10.332;2023-09-18T13:27:53;14.27;;;2.42;;
78120;SDS011;67585;44.802;10.332;2023-09-18T13:30:19;23.80;;;2.63;;
78120;SDS011;67585;44.802;10.332;2023-09-18T13:32:46;18.45;;;2.85;;
78120;SDS011;67585;44.802;10.332;2023-09-18T13:35:16;25.58;;;2.50;;
78120;SDS011;67585;44.802;10.332;2023-09-18T13:40:08;24.45;;;2.50;;
78120;SDS011;67585;44.802;10.332;2023-09-18T13:42:34;18.20;;;2.33;;
78120;SDS011;67585;44.802;10.332;2023-09-18T13:45:00;19.80;;;1.10;;
78120;SDS011;67585;44.802;10.332;2023-09-18T13:47:28;14.18;;;1.45;;
78120;SDS011;67585;44.802;10.332;2023-09-18T13:49:54;18.80;;;2.05;;
78120;SDS011;67585;44.802;10.332;2023-09-18T13:52:23;11.55;;;1.20;;
78120;SDS011;67585;44.802;10.332;2023-09-18T13:54:49;25.65;;;2.67;;
78120;SDS011;67585;44.802;10.332;2023-09-18T13:59:45;12.27;;;1.75;;
78120;SDS011;67585;44.802;10.332;2023-09-18T14:02:12;13.25;;;1.23;;
78120;SDS011;67585;44.802;10.332;2023-09-18T14:04:38;18.98;;;1.58;;
78120;SDS011;67585;44.802;10.332;2023-09-18T14:07:04;23.52;;;2.10;;
78120;SDS011;67585;44.802;10.332;2023-09-18T14:09:33;17.30;;;1.83;;
78120;SDS011;67585;44.802;10.332;2023-09-18T14:11:58;16.63;;;1.60;;
78120;SDS011;67585;44.802;10.332;2023-09-18T14:14:24;18.30;;;1.35;;
78120;SDS011;67585;44.802;10.332;2023-09-18T14:16:50;16.98;;;0.90;;
78120;SDS011;67585;44.802;10.332;2023-09-18T14:19:16;12.70;;;2.00;;
78120;SDS011;67585;44.802;10.332;2023-09-18T14:21:41;9.95;;;0.80;;
78120;SDS011;67585;44.802;10.332;2023-09-18T14:24:07;16.45;;;1.13;;
78120;SDS011;67585;44.802;10.332;2023-09-18T14:26:33;15.13;;;1.50;;
78120;SDS011;67585;44.802;10.332;2023-09-18T14:29:05;13.90;;;1.00;;
78120;SDS011;67585;44.802;10.332;2023-09-18T14:31:34;12.27;;;0.75;;
78120;SDS011;67585;44.802;10.332;2023-09-18T14:34:01;15.65;;;1.80;;
78120;SDS011;67585;44.802;10.332;2023-09-18T14:36:26;15.90;;;1.33;;
78120;SDS011;67585;44.802;10.332;2023-09-18T14:38:51;13.10;;;1.30;;
78120;SDS011;67585;44.802;10.332;2023-09-18T14:41:17;14.85;;;1.42;;
78120;SDS011;67585;44.802;10.332;2023-09-18T14:43:44;14.82;;;1.05;;